CheckWX is a tool to help pilots better visualize weather data.  It is not intended as a substitute for an official pre-flight weather briefing.

08:35:12 UTC

KHKS METAR
Hawkins Field Airport
Jackson, Mississippi, USA
Current

19 mins ago

KHKS 190816Z AUTO 16009KT 10SM VCTS OVC015 23/22 A2989 RMK AO2 LTG DSNT S-NW T02330222
Observed
May-19 @ 08:16 UTC
Wind
  • 160° at 9 KTS
Visibility
10 SM
Flight Rules
MVFR
Conditions
Area Thunderstorm
Cloud Levels
  • Overcast at 1,500' AGL
Temperature
23°C / 73°F
Dewpoint
22°C / 72°F
Humidity
94%
Altimeter
29.89" Hg
Pressure
1012.22 hPa
Previous

29 mins ago

KHKS 190806Z AUTO 15007KT 10SM BKN014 OVC019 23/22 A2990 RMK AO2 LTG DSNT SW AND W T02330222
Observed
May-19 @ 08:06 UTC
Wind
  • 150° at 7 KTS
Visibility
10 SM
Flight Rules
MVFR
Cloud Levels
  • Broken at 1,400' AGL
  • Overcast at 1,900' AGL
Temperature
23°C / 73°F
Dewpoint
22°C / 72°F
Humidity
94%
Altimeter
29.9" Hg
Pressure
1012.52 hPa
Previous

42 mins ago

KHKS 190753Z AUTO 14007KT 10SM OVC016 23/22 A2990 RMK AO2 LTG DSNT SW-NW SLP115 T02330217
Observed
May-19 @ 07:53 UTC
Wind
  • 140° at 7 KTS
Visibility
10 SM
Flight Rules
MVFR
Cloud Levels
  • Overcast at 1,600' AGL
Temperature
23°C / 73°F
Dewpoint
22°C / 72°F
Humidity
94%
Altimeter
29.9" Hg
Pressure
1012.52 hPa